createdAt,value
2019-02-02T00:01:05.383Z,85.95
2019-02-02T00:03:32.036Z,85.97
2019-02-02T00:05:59.387Z,86.04
2019-02-02T00:08:25.824Z,85.81
2019-02-02T00:10:52.459Z,85.37
2019-02-02T00:13:19.186Z,85.12
2019-02-02T00:15:47.561Z,85.74
2019-02-02T00:18:14.290Z,85.71
2019-02-02T00:20:40.923Z,85.55
2019-02-02T00:23:07.661Z,85.31
2019-02-02T00:25:34.096Z,85.30
2019-02-02T00:28:00.981Z,85.99
2019-02-02T00:30:27.843Z,86.09
2019-02-02T00:32:55.646Z,86.34
2019-02-02T00:35:21.805Z,87.23
2019-02-02T00:37:48.670Z,86.11
2019-02-02T00:40:18.052Z,86.78
2019-02-02T00:42:45.290Z,86.65
2019-02-02T00:45:14.883Z,86.42
2019-02-02T00:47:41.745Z,86.64
2019-02-02T00:50:11.077Z,85.98
2019-02-02T00:52:37.869Z,86.29
2019-02-02T00:55:16.073Z,86.32
2019-02-02T00:57:53.112Z,85.92
2019-02-02T01:00:15.178Z,86.59
2019-02-02T01:02:42.105Z,86.33
2019-02-02T01:05:36.448Z,86.04
2019-02-02T01:08:03.733Z,85.63
2019-02-02T01:10:33.080Z,86.23
2019-02-02T01:12:59.879Z,86.02
2019-02-02T01:15:27.318Z,85.80
2019-02-02T01:17:54.062Z,85.59
2019-02-02T01:20:21.264Z,85.68
2019-02-02T01:22:48.281Z,85.70
2019-02-02T01:25:15.724Z,86.09
2019-02-02T01:27:42.921Z,85.90
2019-02-02T01:30:12.585Z,85.86
2019-02-02T01:32:39.195Z,85.78
2019-02-02T01:35:08.261Z,85.97
2019-02-02T01:37:35.373Z,85.67
2019-02-02T01:40:02.028Z,86.37
2019-02-02T01:42:28.754Z,85.89
2019-02-02T01:44:55.322Z,85.82
2019-02-02T01:47:21.823Z,85.98
2019-02-02T01:49:48.574Z,85.84
2019-02-02T01:52:15.637Z,86.08
2019-02-02T01:54:42.457Z,86.69
2019-02-02T01:57:09.258Z,86.24
2019-02-02T01:59:36.207Z,86.29
2019-02-02T02:02:03.161Z,86.82
2019-02-02T02:04:29.643Z,87.31
2019-02-02T02:06:56.364Z,86.99
2019-02-02T02:09:23.373Z,87.10
2019-02-02T02:11:50.274Z,86.48
2019-02-02T02:14:17.233Z,86.51
2019-02-02T02:16:43.863Z,86.69
2019-02-02T02:19:10.396Z,86.54
2019-02-02T02:21:37.033Z,86.56
2019-02-02T02:24:03.903Z,86.30
2019-02-02T02:26:30.456Z,86.30
2019-02-02T02:28:57.678Z,86.78
2019-02-02T02:31:24.499Z,86.77
2019-02-02T02:33:50.990Z,86.25
2019-02-02T02:36:17.876Z,86.84
2019-02-02T02:38:44.681Z,87.03
2019-02-02T02:41:11.419Z,87.27
2019-02-02T02:43:37.919Z,87.65
2019-02-02T02:46:04.388Z,87.04
2019-02-02T02:48:30.961Z,86.96
2019-02-02T02:50:57.511Z,87.41
2019-02-02T02:53:24.638Z,87.72
2019-02-02T02:55:51.661Z,87.43
2019-02-02T02:58:18.131Z,87.81
2019-02-02T03:00:44.782Z,87.98
2019-02-02T03:03:11.779Z,87.81
2019-02-02T03:05:38.359Z,87.66
2019-02-02T03:08:05.623Z,87.44
2019-02-02T03:10:32.930Z,87.43
2019-02-02T03:12:59.523Z,87.53
2019-02-02T03:15:26.142Z,87.33
2019-02-02T03:17:53.288Z,87.71
2019-02-02T03:20:19.885Z,87.92
2019-02-02T03:22:46.905Z,87.83
2019-02-02T03:25:20.339Z,87.71
2019-02-02T03:27:47.045Z,88.22
2019-02-02T03:30:15.895Z,88.33
2019-02-02T03:32:42.354Z,88.36
2019-02-02T03:35:10.648Z,88.23
2019-02-02T03:37:37.348Z,88.47
2019-02-02T03:40:07.655Z,88.24
2019-02-02T03:42:34.218Z,88.69
2019-02-02T03:45:00.778Z,88.71
2019-02-02T03:47:27.317Z,88.97
2019-02-02T03:49:54.121Z,88.49
2019-02-02T03:52:20.723Z,88.91
2019-02-02T03:54:47.124Z,88.17
2019-02-02T03:57:13.829Z,88.80
2019-02-02T03:59:40.638Z,88.77
2019-02-02T04:02:07.367Z,89.02
2019-02-02T04:04:34.061Z,88.67
2019-02-02T04:07:00.552Z,88.39
2019-02-02T04:09:27.294Z,88.28
2019-02-02T04:11:54.001Z,87.78
2019-02-02T04:14:20.979Z,87.59
2019-02-02T04:16:47.558Z,87.72
2019-02-02T04:19:14.137Z,87.87
2019-02-02T04:21:40.728Z,87.85
2019-02-02T04:24:07.541Z,87.49
2019-02-02T04:26:34.005Z,87.91
2019-02-02T04:29:00.893Z,88.40
2019-02-02T04:31:27.587Z,88.69
2019-02-02T04:33:54.717Z,88.31
2019-02-02T04:36:21.686Z,88.33
2019-02-02T04:38:48.404Z,88.51
2019-02-02T04:41:15.086Z,88.91
2019-02-02T04:43:41.773Z,88.52
2019-02-02T04:46:08.450Z,88.14
2019-02-02T04:48:34.964Z,88.19
2019-02-02T04:51:01.767Z,88.02
2019-02-02T04:53:28.606Z,87.48
2019-02-02T04:55:55.325Z,87.88
2019-02-02T04:58:21.977Z,88.08
2019-02-02T05:00:48.682Z,88.52
2019-02-02T05:03:15.395Z,88.33
2019-02-02T05:05:42.492Z,88.37
2019-02-02T05:08:09.229Z,88.61
2019-02-02T05:10:36.222Z,88.19
2019-02-02T05:13:03.076Z,88.20
2019-02-02T05:15:30.117Z,88.17
2019-02-02T05:17:56.754Z,88.40
2019-02-02T05:20:23.662Z,88.30
2019-02-02T05:22:50.551Z,88.67
2019-02-02T05:25:17.624Z,88.17
2019-02-02T05:27:44.366Z,87.90
2019-02-02T05:30:22.954Z,88.21
2019-02-02T05:32:49.924Z,88.40
2019-02-02T05:35:16.557Z,88.45
2019-02-02T05:37:43.186Z,88.93
2019-02-02T05:40:13.329Z,88.59
2019-02-02T05:42:39.871Z,88.34
2019-02-02T05:45:09.301Z,88.46
2019-02-02T05:47:35.683Z,88.42
2019-02-02T05:50:03.011Z,88.47
2019-02-02T05:52:29.440Z,89.55
2019-02-02T05:54:56.591Z,89.01
2019-02-02T05:57:23.184Z,88.88
2019-02-02T05:59:52.867Z,89.30
2019-02-02T06:02:18.267Z,89.52
2019-02-02T06:04:45.343Z,89.52
2019-02-02T06:07:11.869Z,89.76
2019-02-02T06:09:38.413Z,89.54
2019-02-02T06:12:05.564Z,89.87
2019-02-02T06:14:31.995Z,89.69
2019-02-02T06:16:58.529Z,89.40
2019-02-02T06:19:25.038Z,90.00
2019-02-02T06:21:51.541Z,90.56
2019-02-02T06:24:17.909Z,90.95
2019-02-02T06:26:44.416Z,90.90
2019-02-02T06:29:10.914Z,90.88
2019-02-02T06:31:37.927Z,90.67
2019-02-02T06:34:04.458Z,90.47
2019-02-02T06:36:30.876Z,90.42
2019-02-02T06:38:57.441Z,90.69
2019-02-02T06:41:24.478Z,90.74
2019-02-02T06:43:50.795Z,90.58
2019-02-02T06:46:17.483Z,90.66
2019-02-02T06:48:43.886Z,90.40
2019-02-02T06:51:10.813Z,90.25
2019-02-02T06:53:37.182Z,90.29
2019-02-02T06:56:04.030Z,90.38
2019-02-02T06:58:31.006Z,90.42
2019-02-02T07:00:57.967Z,89.97
2019-02-02T07:03:24.544Z,90.41
2019-02-02T07:05:51.390Z,90.26
2019-02-02T07:08:17.834Z,90.91
2019-02-02T07:10:44.391Z,90.38
2019-02-02T07:13:10.955Z,90.32
2019-02-02T07:15:37.515Z,90.19
2019-02-02T07:21:15.986Z,90.65
2019-02-02T07:23:56.954Z,90.53
2019-02-02T07:26:26.889Z,90.13
2019-02-02T07:28:53.188Z,90.00
2019-02-02T07:31:19.767Z,90.16
2019-02-02T07:33:46.572Z,90.22
2019-02-02T07:36:13.090Z,89.91
2019-02-02T07:38:39.475Z,89.90
2019-02-02T07:41:08.146Z,90.10
2019-02-02T07:43:35.390Z,90.44
2019-02-02T07:46:01.867Z,90.22
2019-02-02T07:48:28.806Z,90.03
2019-02-02T07:50:55.339Z,90.20
2019-02-02T07:53:22.148Z,90.35
2019-02-02T07:55:48.973Z,90.27
2019-02-02T07:58:15.766Z,90.37
2019-02-02T08:00:42.662Z,90.52
2019-02-02T08:03:09.604Z,90.50
2019-02-02T08:05:36.441Z,90.68
2019-02-02T08:08:04.305Z,90.45
2019-02-02T08:10:30.709Z,90.83
2019-02-02T08:12:57.434Z,90.94
2019-02-02T08:15:32.384Z,91.29
2019-02-02T08:18:01.167Z,93.02
2019-02-02T08:20:28.802Z,93.84
2019-02-02T08:22:56.618Z,93.04
2019-02-02T08:25:23.424Z,91.46
2019-02-02T08:27:49.726Z,91.06
2019-02-02T08:30:21.113Z,90.94
2019-02-02T08:32:49.692Z,90.91
2019-02-02T08:35:16.413Z,90.71
2019-02-02T08:37:43.432Z,91.23
2019-02-02T08:40:16.681Z,90.94
2019-02-02T08:42:43.260Z,90.91
2019-02-02T08:45:14.352Z,91.42
2019-02-02T08:47:45.241Z,91.72
2019-02-02T08:50:18.443Z,91.91
2019-02-02T08:52:45.400Z,91.92
2019-02-02T08:55:12.219Z,91.61
2019-02-02T08:57:39.144Z,91.86
2019-02-02T09:00:12.374Z,91.92
2019-02-02T09:02:41.040Z,91.82
2019-02-02T09:05:10.717Z,92.13
2019-02-02T09:07:38.432Z,91.84
2019-02-02T09:10:15.332Z,92.19
2019-02-02T09:12:42.240Z,92.13
2019-02-02T09:15:11.868Z,91.78
2019-02-02T09:17:41.114Z,92.09
2019-02-02T09:20:11.653Z,92.13
2019-02-02T09:22:38.775Z,92.13
2019-02-02T09:28:30.819Z,93.17
2019-02-02T09:31:02.007Z,92.75
2019-02-02T09:33:28.604Z,92.84
2019-02-02T09:35:55.523Z,92.89
2019-02-02T09:38:22.150Z,92.67
2019-02-02T09:40:49.165Z,92.94
2019-02-02T09:43:22.923Z,92.90
2019-02-02T09:48:53.377Z,92.90
2019-02-02T09:51:19.948Z,92.67
2019-02-02T09:53:46.461Z,92.99
2019-02-02T09:56:12.734Z,93.09
2019-02-02T09:58:39.398Z,93.25
2019-02-02T10:01:05.898Z,93.29
2019-02-02T10:07:08.188Z,93.43
2019-02-02T10:09:34.798Z,93.36
2019-02-02T10:15:14.239Z,93.45
2019-02-02T10:17:40.770Z,93.50
2019-02-02T10:20:11.397Z,93.61
2019-02-02T10:22:38.191Z,93.43
2019-02-02T10:25:08.834Z,93.08
2019-02-02T10:31:10.871Z,93.29
2019-02-02T10:33:37.388Z,93.53
2019-02-02T10:36:03.869Z,93.56
2019-02-02T10:38:33.687Z,93.26
2019-02-02T10:41:00.341Z,93.66
2019-02-02T10:43:27.180Z,93.56
2019-02-02T10:45:54.119Z,93.40
2019-02-02T10:48:20.869Z,93.42
2019-02-02T10:50:47.490Z,93.29
2019-02-02T10:53:14.029Z,93.70
2019-02-02T10:55:40.339Z,93.58
2019-02-02T10:58:06.887Z,93.80
2019-02-02T11:04:09.188Z,93.70
2019-02-02T11:06:35.971Z,93.91
2019-02-02T11:09:06.600Z,94.03
2019-02-02T11:11:33.257Z,93.96
2019-02-02T11:13:59.757Z,94.01
2019-02-02T11:16:26.178Z,94.35
2019-02-02T11:18:52.725Z,94.12
2019-02-02T11:21:19.125Z,94.20
2019-02-02T11:23:45.898Z,93.87
2019-02-02T11:26:12.623Z,94.00
2019-02-02T11:28:39.005Z,94.28
2019-02-02T11:34:16.876Z,94.32
2019-02-02T11:40:10.359Z,95.55
2019-02-02T11:45:48.609Z,94.38
2019-02-02T11:48:15.325Z,94.37
2019-02-02T11:50:41.903Z,94.15
2019-02-02T11:53:08.697Z,94.60
2019-02-02T11:55:35.314Z,94.41
2019-02-02T11:58:01.904Z,94.40
2019-02-02T12:00:35.267Z,94.67
2019-02-02T12:03:41.459Z,94.83
2019-02-02T12:06:07.698Z,94.96
2019-02-02T12:08:33.899Z,94.75
2019-02-02T12:11:00.299Z,95.09
2019-02-02T12:17:01.300Z,94.59
2019-02-02T12:19:27.631Z,95.22
2019-02-02T12:25:18.612Z,95.91
2019-02-02T12:31:08.869Z,94.85
2019-02-02T12:36:59.524Z,94.30
2019-02-02T12:39:25.900Z,93.80
2019-02-02T12:41:52.167Z,93.72
2019-02-02T12:47:42.253Z,94.49
2019-02-02T12:50:11.161Z,94.40
2019-02-02T12:52:37.648Z,94.94
2019-02-02T12:55:07.254Z,94.46
2019-02-02T12:57:33.846Z,94.21
2019-02-02T13:00:00.881Z,93.77
2019-02-02T13:02:37.586Z,94.15
2019-02-02T13:04:55.272Z,94.13
2019-02-02T13:07:21.749Z,94.15
2019-02-02T13:09:48.116Z,94.13
2019-02-02T13:12:15.098Z,94.48
2019-02-02T13:14:42.322Z,94.41
2019-02-02T13:20:19.970Z,94.40
2019-02-02T13:22:46.812Z,94.06
2019-02-02T13:25:16.249Z,94.15
2019-02-02T13:31:06.639Z,94.16
2019-02-02T13:33:33.594Z,93.96
2019-02-02T13:36:00.239Z,93.48
2019-02-02T13:41:38.234Z,93.89
2019-02-02T13:44:04.858Z,93.46
2019-02-02T13:49:54.901Z,93.06
2019-02-02T13:52:21.190Z,93.45
2019-02-02T13:57:59.955Z,93.88
2019-02-02T14:03:52.580Z,94.07
2019-02-02T14:12:35.518Z,94.03
2019-02-02T14:18:38.090Z,94.20
2019-02-02T14:24:28.997Z,93.93
2019-02-02T14:26:55.623Z,94.50
2019-02-02T14:29:22.085Z,94.17
2019-02-02T14:31:48.745Z,93.63
2019-02-02T14:34:15.590Z,93.96
2019-02-02T14:36:42.307Z,93.82
2019-02-02T14:39:09.604Z,93.54
2019-02-02T14:41:36.610Z,93.29
2019-02-02T14:44:03.540Z,93.80
2019-02-02T14:46:30.492Z,94.11
2019-02-02T14:48:56.903Z,93.76
2019-02-02T14:54:46.820Z,94.03
2019-02-02T14:57:13.549Z,94.58
2019-02-02T14:59:40.109Z,94.95
2019-02-02T15:02:06.516Z,95.05
2019-02-02T15:04:32.664Z,95.00
2019-02-02T15:06:59.324Z,95.46
2019-02-02T15:09:26.256Z,95.80
2019-02-02T15:11:52.818Z,95.56
2019-02-02T15:14:19.399Z,96.04
2019-02-02T15:16:46.182Z,96.05
2019-02-02T15:19:12.705Z,96.13
2019-02-02T15:24:50.058Z,96.16
2019-02-02T15:27:16.659Z,96.38
2019-02-02T15:33:06.813Z,96.79
2019-02-02T15:35:33.570Z,96.76
2019-02-02T15:41:24.060Z,97.18
2019-02-02T15:43:50.761Z,96.96
2019-02-02T15:46:17.212Z,96.72
2019-02-02T15:48:44.080Z,96.73
2019-02-02T15:51:11.223Z,96.50
2019-02-02T15:57:01.936Z,96.63
2019-02-02T15:59:28.899Z,96.67
2019-02-02T16:01:55.301Z,96.34
2019-02-02T16:04:21.794Z,96.55
2019-02-02T16:10:23.853Z,96.52
2019-02-02T16:16:15.161Z,96.35
2019-02-02T16:21:52.808Z,95.97
2019-02-02T16:27:42.779Z,95.85
2019-02-02T16:30:12.686Z,95.83
2019-02-02T16:36:13.480Z,95.48
2019-02-02T16:38:39.665Z,95.80
2019-02-02T16:41:06.154Z,95.80
2019-02-02T16:46:56.360Z,95.49
2019-02-02T16:52:46.840Z,96.76
2019-02-02T16:58:37.694Z,95.92
2019-02-02T17:01:04.280Z,95.63
2019-02-02T17:03:30.742Z,95.38
2019-02-02T17:05:57.400Z,95.33
2019-02-02T17:08:24.204Z,95.37
2019-02-02T17:10:50.741Z,95.44
2019-02-02T17:13:17.367Z,95.03
2019-02-02T17:15:43.775Z,95.31
2019-02-02T17:18:10.142Z,95.48
2019-02-02T17:20:38.628Z,95.47
2019-02-02T17:23:05.328Z,95.55
2019-02-02T17:25:31.805Z,95.35
2019-02-02T17:27:58.098Z,95.52
2019-02-02T17:30:25.188Z,95.70
2019-02-02T17:32:54.506Z,95.62
2019-02-02T17:38:31.917Z,95.37
2019-02-02T17:40:58.193Z,95.16
2019-02-02T17:46:35.538Z,95.18
2019-02-02T17:49:02.240Z,95.00
2019-02-02T17:51:28.545Z,95.32
2019-02-02T17:53:55.042Z,95.32
2019-02-02T17:56:21.473Z,95.30
2019-02-02T17:58:47.756Z,95.36
2019-02-02T18:01:14.282Z,94.73
2019-02-02T18:03:40.858Z,94.91
2019-02-02T18:09:30.699Z,95.24
2019-02-02T18:15:14.015Z,95.34
2019-02-02T18:17:40.506Z,95.20
2019-02-02T18:23:30.403Z,95.01
2019-02-02T18:25:56.782Z,95.10
2019-02-02T18:28:23.255Z,94.99
2019-02-02T18:30:49.771Z,94.75
2019-02-02T18:33:16.531Z,95.02
2019-02-02T18:39:06.571Z,94.73
2019-02-02T18:41:32.893Z,94.49
2019-02-02T18:44:00.275Z,94.51
2019-02-02T18:46:26.708Z,94.49
2019-02-02T18:48:53.129Z,93.89
2019-02-02T18:54:20.483Z,94.10
2019-02-02T18:56:46.780Z,94.38
2019-02-02T18:59:13.170Z,94.68
2019-02-02T19:01:39.630Z,94.57
2019-02-02T19:04:06.274Z,94.60
2019-02-02T19:06:32.763Z,94.93
2019-02-02T19:08:59.279Z,95.03
2019-02-02T19:11:26.067Z,95.07
2019-02-02T19:13:52.743Z,95.73
2019-02-02T19:16:33.532Z,95.80
2019-02-02T19:19:00.230Z,95.12
2019-02-02T19:21:26.694Z,94.48
2019-02-02T19:23:53.330Z,94.01
2019-02-02T19:26:19.715Z,93.94
2019-02-02T19:28:46.082Z,94.23
2019-02-02T19:34:48.014Z,94.61
2019-02-02T19:37:14.509Z,94.61
2019-02-02T19:39:40.929Z,94.55
2019-02-02T19:42:07.204Z,94.79
2019-02-02T19:44:34.123Z,94.78
2019-02-02T19:47:00.590Z,94.80
2019-02-02T19:49:26.980Z,96.38
2019-02-02T19:55:14.396Z,95.05
2019-02-02T19:57:33.618Z,94.66
2019-02-02T20:00:02.703Z,94.51
2019-02-02T20:02:29.010Z,94.24
2019-02-02T20:04:56.053Z,94.57
2019-02-02T20:07:22.877Z,94.61
2019-02-02T20:09:49.473Z,95.12
2019-02-02T20:15:27.001Z,95.39
2019-02-02T20:17:53.498Z,95.15
2019-02-02T20:20:25.441Z,94.88
2019-02-02T20:22:52.575Z,95.10
2019-02-02T20:28:55.415Z,95.02
2019-02-02T20:31:22.090Z,94.87
2019-02-02T20:37:23.738Z,95.09
2019-02-02T20:39:50.177Z,95.12
2019-02-02T20:42:17.561Z,95.28
2019-02-02T20:44:44.072Z,95.29
2019-02-02T20:47:10.535Z,95.47
2019-02-02T20:49:37.602Z,95.45
2019-02-02T20:52:04.108Z,95.80
2019-02-02T20:54:30.521Z,95.73
2019-02-02T21:00:28.390Z,95.22
2019-02-02T21:02:54.977Z,95.16
2019-02-02T21:05:21.458Z,95.06
2019-02-02T21:07:48.100Z,94.86
2019-02-02T21:10:16.425Z,94.88
2019-02-02T21:12:42.794Z,95.13
2019-02-02T21:15:11.847Z,96.10
2019-02-02T21:17:38.382Z,95.89
2019-02-02T21:20:09.067Z,94.94
2019-02-02T21:22:35.511Z,94.54
2019-02-02T21:25:05.649Z,94.59
2019-02-02T21:30:56.003Z,94.67
2019-02-02T21:36:34.325Z,94.33
2019-02-02T21:39:00.944Z,94.61
2019-02-02T21:41:27.396Z,94.52
2019-02-02T21:43:53.793Z,94.54
2019-02-02T21:46:20.263Z,94.41
2019-02-02T21:48:46.704Z,94.32
2019-02-02T21:51:13.364Z,93.85
2019-02-02T21:53:39.703Z,94.28
2019-02-02T21:56:06.005Z,94.75
2019-02-02T22:01:59.569Z,94.70
2019-02-02T22:07:37.975Z,94.37
2019-02-02T22:13:05.613Z,94.29
2019-02-02T22:15:32.328Z,93.93
2019-02-02T22:21:34.891Z,94.32
2019-02-02T22:24:01.600Z,94.22
2019-02-02T22:26:28.254Z,93.99
2019-02-02T22:28:57.829Z,93.77
2019-02-02T22:34:46.634Z,93.37
2019-02-02T22:40:26.614Z,93.85
2019-02-02T22:46:16.982Z,93.17
2019-02-02T22:48:43.543Z,93.35
2019-02-02T22:51:09.880Z,93.72
2019-02-02T22:53:36.713Z,93.38
2019-02-02T22:56:03.382Z,93.53
2019-02-02T22:58:29.889Z,93.41
2019-02-02T23:01:04.691Z,93.48
2019-02-02T23:06:48.285Z,93.90
2019-02-02T23:09:21.756Z,93.99
2019-02-02T23:12:06.542Z,93.97
2019-02-02T23:14:52.272Z,93.61
2019-02-02T23:17:19.320Z,93.99
2019-02-02T23:19:46.119Z,94.03
2019-02-02T23:22:12.975Z,93.76
2019-02-02T23:24:39.626Z,93.41
2019-02-02T23:27:06.628Z,93.19
2019-02-02T23:29:33.621Z,93.19
2019-02-02T23:32:00.518Z,93.51
2019-02-02T23:34:26.886Z,93.43
2019-02-02T23:36:56.098Z,93.61
2019-02-02T23:39:21.602Z,93.62
2019-02-02T23:41:48.184Z,93.51
2019-02-02T23:44:14.544Z,93.64
2019-02-02T23:46:41.180Z,93.64
2019-02-02T23:49:07.619Z,93.39
2019-02-02T23:51:34.137Z,93.67
2019-02-02T23:54:00.598Z,93.33
2019-02-02T23:56:27.332Z,93.11
2019-02-02T23:58:53.645Z,93.27
